BOX6359 LEMD-EDDF
Flight info
| Callsign | BOX6359 |
|---|---|
| Flight time | 2h 5m |
| Altitude | 36000 |
| Route | PINAR4R PINAR N870 SEGRE DCT YAKXU DCT RONNY DCT TOPTU DCT TOU DCT GAI DCT MEN DCT NINUN DCT LATAM DCT ETREK DCT LTP DCT SOPLO DCT OMASI DCT KINNI DCT SOSAL DCT KORED DCT BERSU DCT DITON/N0479F370 DCT LADOL/N0479F360 T163 EMPAX EMPAX5C |
| Aircraft | B77L/H-SDE1E2E3FGHIJ2J3J4J5M1RWXY/LB1D1 |
Departure
| Time | 2026-04-14 11:19 |
|---|---|
| Airport | Adolfo Suárez Madrid–Barajas Airport (LEMD) |
Arrival
| Time | 2026-04-14 13:24 |
|---|---|
| Airport | Frankfurt Main Airport (EDDF) |
| Time | Latitude | Longitude | Altitude | Speed | Heading |
|---|---|---|---|---|---|
| 2026-04-14 10:25 | 40.46027 | -3.55937 | 1959 ft | 0 kts | 360° |
| 2026-04-14 11:06 | 40.46033 | -3.55937 | 1959 ft | 3 kts | 360° |
| 2026-04-14 11:06 | 40.46087 | -3.55940 | 1959 ft | 11 kts | 347° |
| 2026-04-14 11:06 | 40.46115 | -3.56022 | 1961 ft | 11 kts | 269° |
| 2026-04-14 11:06 | 40.46114 | -3.56120 | 1964 ft | 11 kts | 269° |
| 2026-04-14 11:07 | 40.46113 | -3.56219 | 1967 ft | 11 kts | 270° |
| 2026-04-14 11:07 | 40.46113 | -3.56318 | 1973 ft | 11 kts | 270° |
| 2026-04-14 11:07 | 40.46113 | -3.56417 | 1974 ft | 11 kts | 270° |
| 2026-04-14 11:07 | 40.46135 | -3.56504 | 1978 ft | 11 kts | 332° |
| 2026-04-14 11:08 | 40.46217 | -3.56509 | 1976 ft | 14 kts | 2° |
| 2026-04-14 11:08 | 40.46331 | -3.56501 | 1978 ft | 19 kts | 4° |
| 2026-04-14 11:08 | 40.46485 | -3.56489 | 1977 ft | 25 kts | 3° |
| 2026-04-14 11:08 | 40.46666 | -3.56475 | 1979 ft | 26 kts | 3° |
| 2026-04-14 11:09 | 40.46848 | -3.56461 | 1979 ft | 26 kts | 3° |
| 2026-04-14 11:09 | 40.47030 | -3.56458 | 1983 ft | 26 kts | 354° |
| 2026-04-14 11:09 | 40.47194 | -3.56553 | 1985 ft | 26 kts | 322° |
| 2026-04-14 11:10 | 40.47436 | -3.56807 | 1996 ft | 16 kts | 320° |
| 2026-04-14 11:10 | 40.47527 | -3.56894 | 1997 ft | 16 kts | 328° |
| 2026-04-14 11:10 | 40.47619 | -3.56981 | 1998 ft | 16 kts | 322° |
| 2026-04-14 11:10 | 40.47708 | -3.57073 | 2002 ft | 16 kts | 322° |
| 2026-04-14 11:11 | 40.47797 | -3.57165 | 2004 ft | 16 kts | 321° |
| 2026-04-14 11:11 | 40.47885 | -3.57257 | 2003 ft | 16 kts | 322° |
| 2026-04-14 11:11 | 40.47974 | -3.57349 | 2004 ft | 17 kts | 322° |
| 2026-04-14 11:11 | 40.48070 | -3.57444 | 2006 ft | 18 kts | 324° |
| 2026-04-14 11:12 | 40.48172 | -3.57544 | 2003 ft | 19 kts | 320° |
| 2026-04-14 11:12 | 40.48281 | -3.57659 | 1999 ft | 21 kts | 322° |
| 2026-04-14 11:12 | 40.48405 | -3.57782 | 1997 ft | 23 kts | 324° |
| 2026-04-14 11:12 | 40.48550 | -3.57885 | 1998 ft | 24 kts | 334° |
| 2026-04-14 11:13 | 40.48702 | -3.57928 | 2003 ft | 23 kts | 2° |
| 2026-04-14 11:13 | 40.48824 | -3.57925 | 2000 ft | 11 kts | 1° |
| 2026-04-14 11:13 | 40.48858 | -3.57845 | 2000 ft | 13 kts | 88° |
| 2026-04-14 11:13 | 40.48858 | -3.57671 | 1996 ft | 25 kts | 89° |
| 2026-04-14 11:14 | 40.48858 | -3.57443 | 1992 ft | 25 kts | 89° |
| 2026-04-14 11:14 | 40.48860 | -3.57212 | 1987 ft | 25 kts | 89° |
| 2026-04-14 11:14 | 40.48861 | -3.56981 | 1983 ft | 25 kts | 90° |
| 2026-04-14 11:14 | 40.48862 | -3.56750 | 1979 ft | 25 kts | 90° |
| 2026-04-14 11:15 | 40.48863 | -3.56534 | 1974 ft | 22 kts | 90° |
| 2026-04-14 11:15 | 40.48863 | -3.56328 | 1971 ft | 19 kts | 90° |
| 2026-04-14 11:15 | 40.48898 | -3.56243 | 1966 ft | 12 kts | 9° |
| 2026-04-14 11:15 | 40.48979 | -3.56241 | 1966 ft | 12 kts | 358° |
| 2026-04-14 11:16 | 40.49061 | -3.56244 | 1966 ft | 12 kts | 359° |
| 2026-04-14 11:16 | 40.49166 | -3.56245 | 1969 ft | 18 kts | 360° |
| 2026-04-14 11:16 | 40.49309 | -3.56246 | 1966 ft | 22 kts | 359° |
| 2026-04-14 11:16 | 40.49460 | -3.56252 | 1966 ft | 22 kts | 1° |
| 2026-04-14 11:17 | 40.49611 | -3.56247 | 1966 ft | 22 kts | 0° |
| 2026-04-14 11:17 | 40.49762 | -3.56251 | 1966 ft | 22 kts | 359° |
| 2026-04-14 11:17 | 40.49900 | -3.56248 | 1966 ft | 17 kts | 12° |
| 2026-04-14 11:17 | 40.49940 | -3.56110 | 1962 ft | 18 kts | 88° |
| 2026-04-14 11:18 | 40.49986 | -3.55961 | 1966 ft | 18 kts | 45° |
| 2026-04-14 11:18 | 40.50123 | -3.55921 | 1965 ft | 33 kts | 0° |
| 2026-04-14 11:18 | 40.50557 | -3.55924 | 1971 ft | 86 kts | 0° |
| 2026-04-14 11:18 | 40.51302 | -3.55929 | 1957 ft | 137 kts | 359° |
| 2026-04-14 11:19 | 40.52418 | -3.55946 | 2047 ft | 180 kts | 359° |
| 2026-04-14 11:19 | 40.53694 | -3.55984 | 2605 ft | 187 kts | 358° |
| 2026-04-14 11:19 | 40.55016 | -3.56038 | 3278 ft | 193 kts | 358° |
| 2026-04-14 11:19 | 40.56366 | -3.56098 | 4473 ft | 184 kts | 358° |
| 2026-04-14 11:20 | 40.57598 | -3.56119 | 6094 ft | 175 kts | 356° |
| 2026-04-14 11:20 | 40.58839 | -3.55979 | 6938 ft | 193 kts | 13° |
| 2026-04-14 11:20 | 40.60116 | -3.55184 | 7262 ft | 216 kts | 40° |
| 2026-04-14 11:20 | 40.60926 | -3.53368 | 7542 ft | 247 kts | 64° |
| 2026-04-14 11:21 | 40.61837 | -3.51382 | 7820 ft | 259 kts | 39° |
| 2026-04-14 11:21 | 40.63206 | -3.49817 | 8510 ft | 267 kts | 37° |
| 2026-04-14 11:21 | 40.64611 | -3.48186 | 9469 ft | 270 kts | 38° |
| 2026-04-14 11:21 | 40.66023 | -3.46536 | 10483 ft | 271 kts | 38° |
| 2026-04-14 11:22 | 40.67479 | -3.44858 | 11153 ft | 287 kts | 37° |
| 2026-04-14 11:22 | 40.69067 | -3.43051 | 11392 ft | 316 kts | 37° |
| 2026-04-14 11:22 | 40.70815 | -3.41075 | 11621 ft | 344 kts | 38° |
| 2026-04-14 11:22 | 40.72647 | -3.39010 | 12312 ft | 356 kts | 38° |
| 2026-04-14 11:23 | 40.74552 | -3.36862 | 13202 ft | 362 kts | 38° |
| 2026-04-14 11:23 | 40.76477 | -3.34690 | 14159 ft | 365 kts | 37° |
| 2026-04-14 11:23 | 40.78420 | -3.32507 | 15083 ft | 368 kts | 37° |
| 2026-04-14 11:23 | 40.80386 | -3.30294 | 15963 ft | 373 kts | 37° |
| 2026-04-14 11:24 | 40.82374 | -3.28060 | 16787 ft | 377 kts | 37° |
| 2026-04-14 11:24 | 40.84294 | -3.25760 | 17488 ft | 382 kts | 44° |
| 2026-04-14 11:24 | 40.85763 | -3.22751 | 18148 ft | 399 kts | 62° |
| 2026-04-14 11:24 | 40.86588 | -3.19220 | 18853 ft | 407 kts | 70° |
| 2026-04-14 11:25 | 40.87281 | -3.15558 | 19526 ft | 413 kts | 70° |
| 2026-04-14 11:25 | 40.87979 | -3.11847 | 20244 ft | 417 kts | 70° |
| 2026-04-14 11:25 | 40.88685 | -3.08114 | 20951 ft | 421 kts | 70° |
| 2026-04-14 11:25 | 40.89406 | -3.04345 | 21638 ft | 424 kts | 69° |
| 2026-04-14 11:26 | 40.90138 | -3.00550 | 22305 ft | 428 kts | 69° |
| 2026-04-14 11:26 | 40.90883 | -2.96720 | 22973 ft | 431 kts | 69° |
| 2026-04-14 11:26 | 40.91626 | -2.92904 | 23602 ft | 435 kts | 68° |
| 2026-04-14 11:26 | 40.92387 | -2.88999 | 24210 ft | 440 kts | 68° |
| 2026-04-14 11:27 | 40.93153 | -2.85062 | 24827 ft | 443 kts | 68° |
| 2026-04-14 11:27 | 40.93922 | -2.81096 | 25467 ft | 446 kts | 68° |
| 2026-04-14 11:27 | 40.94696 | -2.77092 | 26080 ft | 449 kts | 68° |
| 2026-04-14 11:27 | 40.95461 | -2.73126 | 26658 ft | 452 kts | 68° |
| 2026-04-14 11:28 | 40.96238 | -2.69087 | 27239 ft | 454 kts | 68° |
| 2026-04-14 11:28 | 40.97020 | -2.65021 | 27775 ft | 457 kts | 68° |
| 2026-04-14 11:28 | 40.97807 | -2.60927 | 28261 ft | 460 kts | 68° |
| 2026-04-14 11:28 | 40.98602 | -2.56797 | 28719 ft | 463 kts | 68° |
| 2026-04-14 11:29 | 40.99403 | -2.52644 | 29166 ft | 466 kts | 68° |
| 2026-04-14 11:29 | 41.00209 | -2.48482 | 29653 ft | 467 kts | 68° |
| 2026-04-14 11:29 | 41.01013 | -2.44362 | 30073 ft | 466 kts | 66° |
| 2026-04-14 11:29 | 41.02171 | -2.40406 | 30403 ft | 456 kts | 54° |
| 2026-04-14 11:30 | 41.03857 | -2.36893 | 30817 ft | 448 kts | 46° |
| 2026-04-14 11:30 | 41.05864 | -2.33776 | 31331 ft | 439 kts | 39° |
| 2026-04-14 11:30 | 41.08162 | -2.31187 | 31869 ft | 429 kts | 32° |
| 2026-04-14 11:30 | 41.10508 | -2.28751 | 32329 ft | 428 kts | 32° |
| 2026-04-14 11:31 | 41.12818 | -2.26349 | 32825 ft | 426 kts | 32° |
| 2026-04-14 11:31 | 41.15142 | -2.23923 | 33299 ft | 424 kts | 32° |
| 2026-04-14 11:31 | 41.17463 | -2.21483 | 33738 ft | 422 kts | 32° |
| 2026-04-14 11:31 | 41.19754 | -2.19060 | 34182 ft | 421 kts | 32° |
| 2026-04-14 11:32 | 41.22046 | -2.16623 | 34586 ft | 420 kts | 32° |
| 2026-04-14 11:32 | 41.24326 | -2.14195 | 34869 ft | 421 kts | 32° |
| 2026-04-14 11:32 | 41.26590 | -2.11784 | 35123 ft | 423 kts | 32° |
| 2026-04-14 11:32 | 41.28915 | -2.09304 | 35420 ft | 423 kts | 32° |
| 2026-04-14 11:33 | 41.31186 | -2.06877 | 35707 ft | 423 kts | 32° |
| 2026-04-14 11:33 | 41.33485 | -2.04417 | 36013 ft | 423 kts | 32° |
| 2026-04-14 11:34 | 41.40448 | -1.96955 | 36152 ft | 427 kts | 32° |
| 2026-04-14 11:34 | 41.58841 | -1.77109 | 36108 ft | 416 kts | 32° |
| 2026-04-14 11:35 | 41.63388 | -1.72201 | 36166 ft | 425 kts | 32° |
| 2026-04-14 11:35 | 41.68036 | -1.67172 | 36166 ft | 430 kts | 32° |
| 2026-04-14 11:36 | 41.72685 | -1.62113 | 36173 ft | 431 kts | 32° |
| 2026-04-14 11:36 | 41.77334 | -1.57047 | 36164 ft | 430 kts | 32° |
| 2026-04-14 11:37 | 41.81935 | -1.52024 | 36160 ft | 428 kts | 32° |
| 2026-04-14 11:37 | 41.86535 | -1.46995 | 36165 ft | 426 kts | 32° |
| 2026-04-14 11:38 | 41.91124 | -1.41969 | 36165 ft | 424 kts | 32° |
| 2026-04-14 11:38 | 41.95693 | -1.36954 | 36164 ft | 423 kts | 32° |
| 2026-04-14 11:39 | 42.00215 | -1.31984 | 36166 ft | 422 kts | 32° |
| 2026-04-14 11:39 | 42.04774 | -1.26961 | 36169 ft | 423 kts | 32° |
| 2026-04-14 11:40 | 42.09329 | -1.21936 | 36165 ft | 424 kts | 32° |
| 2026-04-14 11:40 | 42.13893 | -1.16883 | 36171 ft | 425 kts | 32° |
| 2026-04-14 11:41 | 42.18464 | -1.11807 | 36179 ft | 426 kts | 32° |
| 2026-04-14 11:41 | 42.23011 | -1.06749 | 36175 ft | 427 kts | 32° |
| 2026-04-14 11:42 | 42.27604 | -1.01630 | 36179 ft | 428 kts | 33° |
| 2026-04-14 11:42 | 42.32206 | -0.96486 | 36184 ft | 429 kts | 33° |
| 2026-04-14 11:43 | 42.36806 | -0.91337 | 36181 ft | 429 kts | 33° |
| 2026-04-14 11:43 | 42.41378 | -0.86137 | 36164 ft | 430 kts | 36° |
| 2026-04-14 11:44 | 42.45456 | -0.80158 | 36164 ft | 440 kts | 44° |
| 2026-04-14 11:44 | 42.49185 | -0.73559 | 36168 ft | 440 kts | 44° |
| 2026-04-14 11:45 | 42.52910 | -0.66951 | 36162 ft | 440 kts | 44° |
| 2026-04-14 11:45 | 42.56618 | -0.60401 | 36160 ft | 440 kts | 44° |
| 2026-04-14 11:46 | 42.60348 | -0.53811 | 36159 ft | 439 kts | 44° |
| 2026-04-14 11:46 | 42.64070 | -0.47226 | 36159 ft | 439 kts | 44° |
| 2026-04-14 11:47 | 42.67762 | -0.40679 | 36152 ft | 437 kts | 44° |
| 2026-04-14 11:47 | 42.71450 | -0.34119 | 36164 ft | 437 kts | 44° |
| 2026-04-14 11:48 | 42.75146 | -0.27537 | 36179 ft | 438 kts | 45° |
| 2026-04-14 11:48 | 42.78843 | -0.20939 | 36185 ft | 437 kts | 44° |
| 2026-04-14 11:49 | 42.82604 | -0.14415 | 36183 ft | 437 kts | 43° |
| 2026-04-14 11:49 | 42.86469 | -0.08056 | 36179 ft | 437 kts | 42° |
| 2026-04-14 11:50 | 42.90336 | -0.01687 | 36186 ft | 438 kts | 43° |
| 2026-04-14 11:50 | 42.94209 | 0.04748 | 36209 ft | 439 kts | 44° |
| 2026-04-14 11:51 | 43.00013 | 0.14467 | 36207 ft | 442 kts | 45° |
| 2026-04-14 11:51 | 43.03906 | 0.21010 | 36205 ft | 444 kts | 45° |
| 2026-04-14 11:52 | 43.07808 | 0.27578 | 36202 ft | 445 kts | 45° |
| 2026-04-14 11:52 | 43.11052 | 0.33055 | 36201 ft | 446 kts | 45° |
| 2026-04-14 11:53 | 43.14958 | 0.39657 | 36208 ft | 446 kts | 45° |
| 2026-04-14 11:53 | 43.18852 | 0.46253 | 36201 ft | 447 kts | 45° |
| 2026-04-14 11:54 | 43.22756 | 0.52886 | 36202 ft | 447 kts | 46° |
| 2026-04-14 11:54 | 43.26667 | 0.59538 | 36203 ft | 447 kts | 46° |
| 2026-04-14 11:55 | 43.30550 | 0.66161 | 36198 ft | 447 kts | 46° |
| 2026-04-14 11:55 | 43.34444 | 0.72819 | 36204 ft | 446 kts | 46° |
| 2026-04-14 11:56 | 43.38330 | 0.79479 | 36198 ft | 446 kts | 46° |
| 2026-04-14 11:56 | 43.42211 | 0.86144 | 36197 ft | 446 kts | 46° |
| 2026-04-14 11:57 | 43.46062 | 0.92767 | 36204 ft | 446 kts | 46° |
| 2026-04-14 11:57 | 43.49939 | 0.99457 | 36202 ft | 447 kts | 46° |
| 2026-04-14 11:58 | 43.53816 | 1.06164 | 36204 ft | 447 kts | 46° |
| 2026-04-14 11:58 | 43.57690 | 1.12877 | 36213 ft | 448 kts | 46° |
| 2026-04-14 11:59 | 43.61581 | 1.19632 | 36213 ft | 449 kts | 46° |
| 2026-04-14 11:59 | 43.65465 | 1.26397 | 36211 ft | 450 kts | 46° |
| 2026-04-14 12:00 | 43.69313 | 1.33156 | 36213 ft | 451 kts | 48° |
| 2026-04-14 12:00 | 43.73050 | 1.40140 | 36210 ft | 452 kts | 49° |
| 2026-04-14 12:01 | 43.76756 | 1.47168 | 36211 ft | 452 kts | 49° |
| 2026-04-14 12:01 | 43.80478 | 1.54192 | 36210 ft | 452 kts | 49° |
| 2026-04-14 12:02 | 43.84205 | 1.61211 | 36200 ft | 453 kts | 49° |
| 2026-04-14 12:02 | 43.87931 | 1.68243 | 36206 ft | 453 kts | 49° |
| 2026-04-14 12:03 | 43.91655 | 1.75289 | 36203 ft | 453 kts | 49° |
| 2026-04-14 12:03 | 43.95378 | 1.82353 | 36198 ft | 453 kts | 49° |
| 2026-04-14 12:04 | 43.99020 | 1.89523 | 36186 ft | 455 kts | 51° |
| 2026-04-14 12:04 | 44.02607 | 1.96783 | 36196 ft | 455 kts | 51° |
| 2026-04-14 12:05 | 44.06194 | 2.04043 | 36187 ft | 455 kts | 51° |
| 2026-04-14 12:05 | 44.09761 | 2.11251 | 36179 ft | 455 kts | 51° |
| 2026-04-14 12:06 | 44.13353 | 2.18513 | 36180 ft | 455 kts | 51° |
| 2026-04-14 12:06 | 44.16937 | 2.25776 | 36172 ft | 455 kts | 51° |
| 2026-04-14 12:07 | 44.20516 | 2.33048 | 36169 ft | 455 kts | 51° |
| 2026-04-14 12:07 | 44.24087 | 2.40325 | 36159 ft | 455 kts | 51° |
| 2026-04-14 12:08 | 44.27634 | 2.47568 | 36156 ft | 455 kts | 51° |
| 2026-04-14 12:08 | 44.31205 | 2.54876 | 36163 ft | 456 kts | 51° |
| 2026-04-14 12:09 | 44.34773 | 2.62200 | 36155 ft | 456 kts | 51° |
| 2026-04-14 12:09 | 44.38342 | 2.69547 | 36157 ft | 457 kts | 51° |
| 2026-04-14 12:10 | 44.41917 | 2.76920 | 36156 ft | 458 kts | 51° |
| 2026-04-14 12:10 | 44.45499 | 2.84330 | 36153 ft | 459 kts | 51° |
| 2026-04-14 12:11 | 44.49052 | 2.91699 | 36159 ft | 459 kts | 51° |
| 2026-04-14 12:11 | 44.52635 | 2.99148 | 36152 ft | 460 kts | 51° |
| 2026-04-14 12:12 | 44.56214 | 3.06608 | 36145 ft | 460 kts | 52° |
| 2026-04-14 12:12 | 44.59777 | 3.14053 | 36151 ft | 460 kts | 52° |
| 2026-04-14 12:13 | 44.63107 | 3.21763 | 36159 ft | 463 kts | 56° |
| 2026-04-14 12:13 | 44.66233 | 3.29611 | 36128 ft | 464 kts | 56° |
| 2026-04-14 12:14 | 44.69391 | 3.37524 | 36134 ft | 465 kts | 56° |
| 2026-04-14 12:14 | 44.72568 | 3.45451 | 36135 ft | 465 kts | 56° |
| 2026-04-14 12:15 | 44.75735 | 3.53373 | 36128 ft | 465 kts | 56° |
| 2026-04-14 12:15 | 44.78898 | 3.61317 | 36121 ft | 465 kts | 57° |
| 2026-04-14 12:16 | 44.82043 | 3.69274 | 36125 ft | 464 kts | 57° |
| 2026-04-14 12:16 | 44.85181 | 3.77238 | 36128 ft | 465 kts | 57° |
| 2026-04-14 12:17 | 44.88298 | 3.85165 | 36130 ft | 465 kts | 57° |
| 2026-04-14 12:17 | 44.91431 | 3.93158 | 36126 ft | 465 kts | 57° |
| 2026-04-14 12:18 | 44.94561 | 4.01165 | 36124 ft | 466 kts | 57° |
| 2026-04-14 12:18 | 44.97692 | 4.09192 | 36121 ft | 467 kts | 58° |
| 2026-04-14 12:19 | 45.00820 | 4.17237 | 36134 ft | 468 kts | 58° |
| 2026-04-14 12:19 | 45.03952 | 4.25319 | 36129 ft | 469 kts | 58° |
| 2026-04-14 12:20 | 45.07068 | 4.33370 | 36126 ft | 469 kts | 58° |
| 2026-04-14 12:20 | 45.10199 | 4.41485 | 36149 ft | 470 kts | 58° |
| 2026-04-14 12:21 | 45.13328 | 4.49615 | 36144 ft | 471 kts | 58° |
| 2026-04-14 12:21 | 45.16461 | 4.57781 | 36129 ft | 471 kts | 58° |
| 2026-04-14 12:22 | 45.19579 | 4.65936 | 36148 ft | 471 kts | 58° |
| 2026-04-14 12:22 | 45.22698 | 4.74119 | 36143 ft | 471 kts | 59° |
| 2026-04-14 12:23 | 45.25805 | 4.82302 | 36144 ft | 471 kts | 59° |
| 2026-04-14 12:23 | 45.28888 | 4.90446 | 36152 ft | 471 kts | 59° |
| 2026-04-14 12:24 | 45.31986 | 4.98651 | 36128 ft | 471 kts | 59° |
| 2026-04-14 12:24 | 45.35075 | 5.06856 | 36130 ft | 471 kts | 59° |
| 2026-04-14 12:25 | 45.38159 | 5.15079 | 36128 ft | 471 kts | 59° |
| 2026-04-14 12:25 | 45.41242 | 5.23320 | 36129 ft | 472 kts | 59° |
| 2026-04-14 12:26 | 45.44323 | 5.31576 | 36131 ft | 472 kts | 59° |
| 2026-04-14 12:26 | 45.47480 | 5.39778 | 36137 ft | 470 kts | 55° |
| 2026-04-14 12:27 | 45.51483 | 5.47101 | 36134 ft | 468 kts | 45° |
| 2026-04-14 12:27 | 45.56241 | 5.53421 | 36145 ft | 467 kts | 39° |
| 2026-04-14 12:28 | 45.61109 | 5.59511 | 36145 ft | 468 kts | 40° |
| 2026-04-14 12:28 | 45.65989 | 5.65716 | 36123 ft | 469 kts | 40° |
| 2026-04-14 12:29 | 45.70853 | 5.71965 | 36137 ft | 470 kts | 40° |
| 2026-04-14 12:29 | 45.75726 | 5.78229 | 36130 ft | 470 kts | 40° |
| 2026-04-14 12:30 | 45.80600 | 5.84489 | 36134 ft | 471 kts | 40° |
| 2026-04-14 12:30 | 45.85450 | 5.90743 | 36125 ft | 471 kts | 40° |
| 2026-04-14 12:31 | 45.90331 | 5.97045 | 36126 ft | 472 kts | 40° |
| 2026-04-14 12:31 | 45.95208 | 6.03364 | 36124 ft | 472 kts | 40° |
| 2026-04-14 12:32 | 46.00079 | 6.09696 | 36130 ft | 472 kts | 40° |
| 2026-04-14 12:32 | 46.04941 | 6.16029 | 36130 ft | 471 kts | 40° |
| 2026-04-14 12:33 | 46.09795 | 6.22379 | 36134 ft | 471 kts | 41° |
| 2026-04-14 12:33 | 46.14501 | 6.28976 | 36132 ft | 472 kts | 43° |
| 2026-04-14 12:34 | 46.19108 | 6.35624 | 36123 ft | 471 kts | 43° |
| 2026-04-14 12:34 | 46.23766 | 6.42309 | 36131 ft | 471 kts | 43° |
| 2026-04-14 12:35 | 46.28428 | 6.48971 | 36132 ft | 471 kts | 43° |
| 2026-04-14 12:35 | 46.33088 | 6.55639 | 36121 ft | 471 kts | 43° |
| 2026-04-14 12:36 | 46.37747 | 6.62322 | 36126 ft | 472 kts | 43° |
| 2026-04-14 12:36 | 46.42415 | 6.69038 | 36133 ft | 473 kts | 43° |
| 2026-04-14 12:37 | 46.47080 | 6.75771 | 36143 ft | 473 kts | 43° |
| 2026-04-14 12:37 | 46.51741 | 6.82510 | 36146 ft | 473 kts | 44° |
| 2026-04-14 12:38 | 46.58475 | 6.93017 | 36153 ft | 474 kts | 50° |
| 2026-04-14 12:39 | 46.62600 | 7.00518 | 36146 ft | 475 kts | 50° |
| 2026-04-14 12:39 | 46.66732 | 7.08043 | 36150 ft | 476 kts | 50° |
| 2026-04-14 12:40 | 46.70855 | 7.15507 | 36149 ft | 476 kts | 50° |
| 2026-04-14 12:40 | 46.75009 | 7.23028 | 36151 ft | 477 kts | 50° |
| 2026-04-14 12:41 | 46.79161 | 7.30571 | 36145 ft | 477 kts | 50° |
| 2026-04-14 12:41 | 46.83314 | 7.38136 | 36143 ft | 477 kts | 50° |
| 2026-04-14 12:42 | 46.86788 | 7.44482 | 36128 ft | 477 kts | 50° |
| 2026-04-14 12:42 | 46.90926 | 7.52081 | 36131 ft | 478 kts | 50° |
| 2026-04-14 12:43 | 46.95031 | 7.59642 | 36126 ft | 478 kts | 50° |
| 2026-04-14 12:43 | 46.99166 | 7.67277 | 36130 ft | 478 kts | 51° |
| 2026-04-14 12:44 | 47.03294 | 7.74921 | 36126 ft | 478 kts | 51° |
| 2026-04-14 12:44 | 47.07422 | 7.82585 | 36145 ft | 478 kts | 51° |
| 2026-04-14 12:45 | 47.13569 | 7.94081 | 36151 ft | 479 kts | 53° |
| 2026-04-14 12:45 | 47.17184 | 8.02329 | 36158 ft | 480 kts | 58° |
| 2026-04-14 12:46 | 47.20676 | 8.10712 | 36156 ft | 482 kts | 58° |
| 2026-04-14 12:46 | 47.24213 | 8.19101 | 36161 ft | 483 kts | 58° |
| 2026-04-14 12:47 | 47.27786 | 8.27495 | 36160 ft | 484 kts | 54° |
| 2026-04-14 12:47 | 47.32471 | 8.34541 | 36168 ft | 482 kts | 36° |
| 2026-04-14 12:48 | 47.38336 | 8.39306 | 36176 ft | 483 kts | 24° |
| 2026-04-14 12:48 | 47.44396 | 8.43434 | 36177 ft | 483 kts | 24° |
| 2026-04-14 12:49 | 47.50498 | 8.47658 | 36181 ft | 484 kts | 25° |
| 2026-04-14 12:49 | 47.56582 | 8.51961 | 36187 ft | 484 kts | 25° |
| 2026-04-14 12:50 | 47.65710 | 8.58475 | 36183 ft | 485 kts | 25° |
| 2026-04-14 12:51 | 47.71783 | 8.62821 | 36182 ft | 484 kts | 25° |
| 2026-04-14 12:51 | 47.77806 | 8.67140 | 36184 ft | 484 kts | 25° |
| 2026-04-14 12:52 | 47.83872 | 8.71500 | 36186 ft | 484 kts | 25° |
| 2026-04-14 12:52 | 47.89933 | 8.75865 | 36179 ft | 483 kts | 25° |
| 2026-04-14 12:53 | 47.95987 | 8.80242 | 36176 ft | 483 kts | 25° |
| 2026-04-14 12:53 | 48.02038 | 8.84628 | 36176 ft | 484 kts | 25° |
| 2026-04-14 12:54 | 48.08095 | 8.89026 | 36177 ft | 484 kts | 25° |
| 2026-04-14 12:54 | 48.14213 | 8.93280 | 36173 ft | 484 kts | 19° |
| 2026-04-14 12:55 | 48.20651 | 8.95932 | 36176 ft | 483 kts | 9° |
| 2026-04-14 12:55 | 48.27316 | 8.97047 | 36175 ft | 482 kts | 4° |
| 2026-04-14 12:56 | 48.34030 | 8.97953 | 35603 ft | 492 kts | 5° |
| 2026-04-14 12:56 | 48.37459 | 8.98455 | 34786 ft | 496 kts | 5° |
| 2026-04-14 12:56 | 48.40892 | 8.98980 | 33901 ft | 495 kts | 5° |
| 2026-04-14 12:56 | 48.44315 | 8.99509 | 32979 ft | 496 kts | 5° |
| 2026-04-14 12:57 | 48.47762 | 9.00038 | 32043 ft | 496 kts | 5° |
| 2026-04-14 12:57 | 48.51207 | 9.00568 | 31064 ft | 497 kts | 5° |
| 2026-04-14 12:57 | 48.54649 | 9.01098 | 30269 ft | 495 kts | 5° |
| 2026-04-14 12:57 | 48.58063 | 9.01624 | 29583 ft | 490 kts | 4° |
| 2026-04-14 12:58 | 48.61438 | 9.02143 | 28903 ft | 485 kts | 4° |
| 2026-04-14 12:58 | 48.64782 | 9.02714 | 28244 ft | 481 kts | 6° |
| 2026-04-14 12:58 | 48.68079 | 9.03464 | 27601 ft | 477 kts | 8° |
| 2026-04-14 12:58 | 48.71293 | 9.04279 | 26971 ft | 472 kts | 8° |
| 2026-04-14 12:59 | 48.74557 | 9.05116 | 26325 ft | 468 kts | 8° |
| 2026-04-14 12:59 | 48.77714 | 9.05904 | 25715 ft | 464 kts | 8° |
| 2026-04-14 12:59 | 48.80884 | 9.06673 | 25100 ft | 459 kts | 8° |
| 2026-04-14 12:59 | 48.84031 | 9.07424 | 24508 ft | 455 kts | 8° |
| 2026-04-14 13:00 | 48.87146 | 9.08167 | 23907 ft | 451 kts | 8° |
| 2026-04-14 13:00 | 48.90233 | 9.08829 | 23316 ft | 447 kts | 5° |
| 2026-04-14 13:00 | 48.93317 | 9.09256 | 22735 ft | 442 kts | 3° |
| 2026-04-14 13:00 | 48.96374 | 9.09620 | 22164 ft | 438 kts | 3° |
| 2026-04-14 13:01 | 48.99396 | 9.10015 | 21602 ft | 434 kts | 4° |
| 2026-04-14 13:01 | 49.02397 | 9.10438 | 21042 ft | 431 kts | 4° |
| 2026-04-14 13:01 | 49.05365 | 9.10863 | 20492 ft | 427 kts | 4° |
| 2026-04-14 13:01 | 49.08314 | 9.11287 | 19946 ft | 423 kts | 4° |
| 2026-04-14 13:02 | 49.11234 | 9.11705 | 19401 ft | 420 kts | 4° |
| 2026-04-14 13:02 | 49.14129 | 9.12118 | 18858 ft | 416 kts | 4° |
| 2026-04-14 13:02 | 49.17002 | 9.12530 | 18318 ft | 412 kts | 4° |
| 2026-04-14 13:02 | 49.19809 | 9.12933 | 17792 ft | 408 kts | 4° |
| 2026-04-14 13:03 | 49.22622 | 9.13336 | 17252 ft | 405 kts | 4° |
| 2026-04-14 13:03 | 49.25421 | 9.13736 | 16716 ft | 401 kts | 4° |
| 2026-04-14 13:03 | 49.28184 | 9.14137 | 16177 ft | 397 kts | 5° |
| 2026-04-14 13:03 | 49.30902 | 9.14784 | 15644 ft | 394 kts | 11° |
| 2026-04-14 13:04 | 49.33564 | 9.15741 | 15103 ft | 391 kts | 13° |
| 2026-04-14 13:04 | 49.36192 | 9.16772 | 14562 ft | 388 kts | 14° |
| 2026-04-14 13:04 | 49.38799 | 9.17781 | 14026 ft | 385 kts | 13° |
| 2026-04-14 13:04 | 49.41395 | 9.18751 | 13495 ft | 381 kts | 13° |
| 2026-04-14 13:05 | 49.43965 | 9.19682 | 12967 ft | 378 kts | 12° |
| 2026-04-14 13:05 | 49.46518 | 9.20593 | 12448 ft | 375 kts | 12° |
| 2026-04-14 13:05 | 49.49053 | 9.21494 | 11930 ft | 372 kts | 12° |
| 2026-04-14 13:05 | 49.51572 | 9.22390 | 11419 ft | 371 kts | 12° |
| 2026-04-14 13:06 | 49.54072 | 9.23281 | 11126 ft | 364 kts | 13° |
| 2026-04-14 13:06 | 49.56505 | 9.24150 | 10968 ft | 352 kts | 13° |
| 2026-04-14 13:06 | 49.58813 | 9.24974 | 10813 ft | 339 kts | 12° |
| 2026-04-14 13:06 | 49.61063 | 9.25780 | 10682 ft | 326 kts | 12° |
| 2026-04-14 13:07 | 49.63230 | 9.26556 | 10549 ft | 314 kts | 12° |
| 2026-04-14 13:07 | 49.65312 | 9.27301 | 10441 ft | 301 kts | 13° |
| 2026-04-14 13:07 | 49.67311 | 9.28017 | 10297 ft | 289 kts | 13° |
| 2026-04-14 13:07 | 49.69235 | 9.28708 | 10197 ft | 279 kts | 13° |
| 2026-04-14 13:08 | 49.71119 | 9.29385 | 10131 ft | 277 kts | 13° |
| 2026-04-14 13:08 | 49.72999 | 9.30061 | 10091 ft | 280 kts | 13° |
| 2026-04-14 13:08 | 49.74925 | 9.30753 | 10029 ft | 288 kts | 13° |
| 2026-04-14 13:08 | 49.76909 | 9.31125 | 9909 ft | 289 kts | 351° |
| 2026-04-14 13:09 | 49.78747 | 9.29939 | 9848 ft | 289 kts | 319° |
| 2026-04-14 13:09 | 49.79908 | 9.27452 | 9782 ft | 288 kts | 291° |
| 2026-04-14 13:09 | 49.80392 | 9.24450 | 9717 ft | 289 kts | 278° |
| 2026-04-14 13:09 | 49.80618 | 9.21358 | 9550 ft | 290 kts | 275° |
| 2026-04-14 13:10 | 49.80794 | 9.18206 | 9072 ft | 296 kts | 275° |
| 2026-04-14 13:10 | 49.80957 | 9.15038 | 8696 ft | 294 kts | 275° |
| 2026-04-14 13:10 | 49.81116 | 9.11921 | 8434 ft | 287 kts | 275° |
| 2026-04-14 13:10 | 49.81274 | 9.08896 | 8274 ft | 277 kts | 275° |
| 2026-04-14 13:11 | 49.81430 | 9.05970 | 8204 ft | 271 kts | 275° |
| 2026-04-14 13:11 | 49.81587 | 9.03041 | 8216 ft | 276 kts | 275° |
| 2026-04-14 13:11 | 49.81749 | 9.00039 | 8206 ft | 282 kts | 276° |
| 2026-04-14 13:11 | 49.81915 | 8.97009 | 8200 ft | 282 kts | 276° |
| 2026-04-14 13:12 | 49.82079 | 8.93997 | 8193 ft | 281 kts | 276° |
| 2026-04-14 13:12 | 49.82242 | 8.91021 | 8191 ft | 279 kts | 276° |
| 2026-04-14 13:12 | 49.82406 | 8.88029 | 8184 ft | 279 kts | 276° |
| 2026-04-14 13:12 | 49.82570 | 8.85045 | 8182 ft | 278 kts | 276° |
| 2026-04-14 13:13 | 49.82731 | 8.82061 | 8184 ft | 277 kts | 276° |
| 2026-04-14 13:13 | 49.82892 | 8.79084 | 8194 ft | 277 kts | 276° |
| 2026-04-14 13:13 | 49.83053 | 8.76097 | 8192 ft | 278 kts | 276° |
| 2026-04-14 13:13 | 49.83214 | 8.73107 | 8189 ft | 278 kts | 276° |
| 2026-04-14 13:14 | 49.83374 | 8.70119 | 8198 ft | 278 kts | 276° |
| 2026-04-14 13:14 | 49.83534 | 8.67124 | 8199 ft | 279 kts | 276° |
| 2026-04-14 13:14 | 49.83694 | 8.64121 | 8189 ft | 280 kts | 276° |
| 2026-04-14 13:14 | 49.83850 | 8.61151 | 8184 ft | 281 kts | 276° |
| 2026-04-14 13:15 | 49.84009 | 8.58107 | 7930 ft | 285 kts | 276° |
| 2026-04-14 13:15 | 49.84169 | 8.55035 | 7620 ft | 285 kts | 276° |
| 2026-04-14 13:15 | 49.84326 | 8.52012 | 7307 ft | 279 kts | 276° |
| 2026-04-14 13:15 | 49.84480 | 8.49040 | 6996 ft | 274 kts | 276° |
| 2026-04-14 13:16 | 49.84629 | 8.46107 | 6689 ft | 271 kts | 276° |
| 2026-04-14 13:16 | 49.84778 | 8.43202 | 6394 ft | 270 kts | 276° |
| 2026-04-14 13:16 | 49.84927 | 8.40292 | 6088 ft | 270 kts | 276° |
| 2026-04-14 13:16 | 49.85074 | 8.37399 | 5797 ft | 270 kts | 276° |
| 2026-04-14 13:17 | 49.85219 | 8.34514 | 5511 ft | 267 kts | 276° |
| 2026-04-14 13:17 | 49.85363 | 8.31672 | 5343 ft | 261 kts | 276° |
| 2026-04-14 13:17 | 49.85499 | 8.28892 | 5214 ft | 260 kts | 276° |
| 2026-04-14 13:17 | 49.85638 | 8.26050 | 5097 ft | 266 kts | 276° |
| 2026-04-14 13:18 | 49.85783 | 8.23178 | 4987 ft | 268 kts | 276° |
| 2026-04-14 13:18 | 49.86102 | 8.20398 | 4837 ft | 261 kts | 295° |
| 2026-04-14 13:18 | 49.87145 | 8.18197 | 4706 ft | 257 kts | 323° |
| 2026-04-14 13:18 | 49.88691 | 8.16942 | 4579 ft | 246 kts | 340° |
| 2026-04-14 13:19 | 49.90299 | 8.16454 | 4397 ft | 232 kts | 5° |
| 2026-04-14 13:19 | 49.91762 | 8.17266 | 4236 ft | 219 kts | 35° |
| 2026-04-14 13:19 | 49.92881 | 8.18761 | 4105 ft | 207 kts | 42° |
| 2026-04-14 13:19 | 49.93903 | 8.20308 | 4035 ft | 205 kts | 43° |
| 2026-04-14 13:20 | 49.94915 | 8.21861 | 3994 ft | 203 kts | 43° |
| 2026-04-14 13:20 | 49.95918 | 8.23413 | 4006 ft | 205 kts | 43° |
| 2026-04-14 13:20 | 49.96932 | 8.24984 | 4003 ft | 206 kts | 43° |
| 2026-04-14 13:20 | 49.97909 | 8.26607 | 3902 ft | 206 kts | 55° |
| 2026-04-14 13:21 | 49.98558 | 8.28612 | 3597 ft | 208 kts | 63° |
| 2026-04-14 13:21 | 49.99124 | 8.30651 | 3310 ft | 203 kts | 66° |
| 2026-04-14 13:21 | 49.99634 | 8.32706 | 2923 ft | 205 kts | 67° |
| 2026-04-14 13:21 | 50.00138 | 8.34810 | 2500 ft | 209 kts | 68° |
| 2026-04-14 13:22 | 50.00636 | 8.36893 | 2180 ft | 199 kts | 70° |
| 2026-04-14 13:22 | 50.01101 | 8.38840 | 1880 ft | 185 kts | 69° |
| 2026-04-14 13:22 | 50.01523 | 8.40623 | 1532 ft | 168 kts | 69° |
| 2026-04-14 13:22 | 50.01911 | 8.42219 | 1290 ft | 151 kts | 68° |
| 2026-04-14 13:23 | 50.02296 | 8.43684 | 1058 ft | 142 kts | 67° |
| 2026-04-14 13:23 | 50.02616 | 8.45146 | 1000 ft | 147 kts | 70° |
| 2026-04-14 13:23 | 50.02974 | 8.46655 | 788 ft | 150 kts | 67° |
| 2026-04-14 13:23 | 50.03338 | 8.48144 | 576 ft | 146 kts | 66° |
| 2026-04-14 13:24 | 50.03688 | 8.49612 | 373 ft | 143 kts | 68° |
| 2026-04-14 13:24 | 50.04235 | 8.51902 | 349 ft | 64 kts | 69° |
| 2026-04-14 13:24 | 50.04352 | 8.52400 | 355 ft | 44 kts | 70° |
| 2026-04-14 13:25 | 50.04391 | 8.52814 | 355 ft | 28 kts | 97° |
| 2026-04-14 13:25 | 50.04361 | 8.53102 | 361 ft | 27 kts | 99° |
| 2026-04-14 13:26 | 50.04424 | 8.53963 | 380 ft | 27 kts | 84° |
| 2026-04-14 13:26 | 50.04444 | 8.54254 | 380 ft | 27 kts | 84° |
| 2026-04-14 13:26 | 50.04447 | 8.54507 | 372 ft | 23 kts | 102° |
| 2026-04-14 13:26 | 50.04360 | 8.54724 | 364 ft | 26 kts | 141° |
| 2026-04-14 13:27 | 50.04201 | 8.54835 | 363 ft | 15 kts | 160° |
| 2026-04-14 13:27 | 50.04107 | 8.54889 | 357 ft | 12 kts | 160° |
| 2026-04-14 13:27 | 50.04030 | 8.54926 | 360 ft | 12 kts | 178° |
| 2026-04-14 13:27 | 50.03977 | 8.54838 | 358 ft | 12 kts | 250° |
| 2026-04-14 13:28 | 50.03947 | 8.54714 | 357 ft | 12 kts | 250° |
| 2026-04-14 13:28 | 50.03916 | 8.54589 | 353 ft | 12 kts | 249° |
| 2026-04-14 13:28 | 50.03896 | 8.54506 | 355 ft | 12 kts | 249° |
| 2026-04-14 13:28 | 50.03861 | 8.54375 | 350 ft | 15 kts | 238° |
| 2026-04-14 13:29 | 50.03799 | 8.54226 | 352 ft | 18 kts | 245° |
| 2026-04-14 13:29 | 50.03752 | 8.54022 | 349 ft | 22 kts | 250° |
| 2026-04-14 13:29 | 50.03676 | 8.53707 | 348 ft | 21 kts | 249° |
| 2026-04-14 13:29 | 50.03689 | 8.53569 | 354 ft | 10 kts | 325° |
| 2026-04-14 13:30 | 50.03734 | 8.53545 | 349 ft | 10 kts | 341° |
| 2026-04-14 13:30 | 50.03794 | 8.53510 | 350 ft | 5 kts | 339° |
| 2026-04-14 13:30 | 50.03811 | 8.53500 | 355 ft | 1 kts | 339° |
| 2026-04-14 13:30 | 50.03812 | 8.53499 | 348 ft | 0 kts | 339° |